Corky — WDC3366 — position and weather

sailwx.info

Track history (hours):
 
Tides and Currents Weather Stations Pressure Air Temp Water Temp Dewpoint Dewpoint Depression Visibility Wind Speed Wind Dir Waves Ship Positions

Corky

Owner: Gulf South Marine Transportation, Inc., New Orleans, LA. More information available from US FCC via Universal Licensing System and Coast Guard Vessel Documentation Center.

Last reported at 2017-Oct-06 11:16 UTC. Time now 2017-Oct-18 23:54 UTC.
Position N 29°33' W 090°26'.
Warning: this ship's position is 12 days out of date.

Length 18 m; draft 3.3 m.

Type: Tow > 200 m length. MMSI: 367006780.

Date/timePositionNaut miles runAvg speedWind from/ knotsBaromVisibWave heightAir tempDewpointWater temp
2017-Oct-06 11:16N 29°33' W 090°26'1 3.7
2017-Oct-06 10:59N 29°33' W 090°27'1 2.6
2017-Oct-06 10:30N 29°33' W 090°28'2 3.6
2017-Oct-06 10:00N 29°34' W 090°31'2 3.8
2017-Oct-06 09:31N 29°34' W 090°33'2 3.6
2017-Oct-06 09:00N 29°34' W 090°35'2 3.3
2017-Oct-06 08:30N 29°35' W 090°36'2 3.4
2017-Oct-06 08:01N 29°35' W 090°38'2 3.4
2017-Oct-06 07:30N 29°36' W 090°40'2 3.7
2017-Oct-06 07:00N 29°37' W 090°42'1 3.0
2017-Oct-06 06:30N 29°35' W 090°43'2 3.2
2017-Oct-06 06:01N 29°34' W 090°43'2 3.4
2017-Oct-06 05:30N 29°33' W 090°45'2 3.3
2017-Oct-06 05:00N 29°32' W 090°47'2 4.0
2017-Oct-06 04:30N 29°32' W 090°49'62 3.4
2017-Oct-05 10:12N 29°53' W 091°56'0 0.6
2017-Oct-05 10:00N 29°53' W 091°56'0 0.1
2017-Oct-05 07:46N 29°53' W 091°56'0 0.1
2017-Oct-05 05:42N 29°53' W 091°56'0 0.0
2017-Oct-05 05:02N 29°53' W 091°56'0 0.1
2017-Oct-05 04:42N 29°53' W 091°56'0 0.9
2017-Oct-05 04:18N 29°53' W 091°56'4 2.7
2017-Oct-05 02:48N 29°50' W 091°60'2 5.8
2017-Oct-05 02:30N 29°49' W 092°02'3 5.7
2017-Oct-05 02:00N 29°48' W 092°05'3 5.8
2017-Oct-05 01:30N 29°47' W 092°08'2 4.4
2017-Oct-05 01:00N 29°47' W 092°10'0 0.6
2017-Oct-05 00:30N 29°47' W 092°11'0 0.0
2017-Oct-05 00:00N 29°47' W 092°11'0 0.6
2017-Oct-04 23:30N 29°47' W 092°10'0 0.5
2017-Oct-04 23:00N 29°47' W 092°10'0 0.2
2017-Oct-04 22:30N 29°47' W 092°11'1 1.5
2017-Oct-04 22:00N 29°47' W 092°11'1 1.9
2017-Oct-04 21:30N 29°47' W 092°12'1 2.0
2017-Oct-04 21:00N 29°48' W 092°14'44 3.6
2017-Oct-04 08:58N 29°56' W 093°03'2 4.9
2017-Oct-04 08:30N 29°56' W 093°06'3 5.1
2017-Oct-04 08:00N 29°56' W 093°09'2 4.7
2017-Oct-04 07:30N 29°58' W 093°11'2 4.6
2017-Oct-04 07:00N 29°59' W 093°13'2 4.6
2017-Oct-04 06:30N 30°01' W 093°14'2 3.9
2017-Oct-04 06:00N 30°02' W 093°16'2 4.7
2017-Oct-04 05:30N 30°05' W 093°17'1 2.4
2017-Oct-04 05:00N 30°05' W 093°18'1 1.7
2017-Oct-04 04:30N 30°06' W 093°18'0 0.0
2017-Oct-04 04:00N 30°06' W 093°18'1 1.5
2017-Oct-04 03:30N 30°06' W 093°19'3 5.1
2017-Oct-04 03:00N 30°04' W 093°21'2 4.8
2017-Oct-04 02:30N 30°04' W 093°24'3 5.1
2017-Oct-04 02:00N 30°04' W 093°27'82 3.5
2017-Oct-03 02:46N 29°31' W 094°53'2 5.8
2017-Oct-03 02:29N 29°32' W 094°54'2 4.5
2017-Oct-03 01:58N 29°34' W 094°55'3 6.0
2017-Oct-03 01:31N 29°36' W 094°57'3 6.4
2017-Oct-03 01:01N 29°39' W 094°58'3 6.4
2017-Oct-03 00:31N 29°42' W 095°01'3 5.7
2017-Oct-02 23:59N 29°44' W 095°03'3 1.8
2017-Oct-02 22:02N 29°46' W 095°06'1 0.0
2017-Oct-01 09:58N 29°46' W 095°05'1 2.7
2017-Oct-01 09:29N 29°45' W 095°04'3 5.6
2017-Oct-01 09:00N 29°44' W 095°01'3 5.2
2017-Oct-01 08:30N 29°42' W 094°60'3 6.1
2017-Oct-01 08:00N 29°39' W 094°58'3 6.1
2017-Oct-01 07:30N 29°36' W 094°57'3 5.9
2017-Oct-01 07:00N 29°34' W 094°55'91 3.1
2017-Sep-30 02:00N 30°04' W 093°16'0 0.0
2017-Sep-30 01:30N 30°04' W 093°16'0 0.0
2017-Sep-30 01:00N 30°04' W 093°16'0 0.0
2017-Sep-30 00:30N 30°04' W 093°16'1 1.6
2017-Sep-30 00:00N 30°03' W 093°16'2 4.0
2017-Sep-29 23:30N 30°02' W 093°15'3 5.2
2017-Sep-29 23:00N 29°60' W 093°13'1 1.3
2017-Sep-29 22:30N 29°59' W 093°12'0 0.0
2017-Sep-29 22:00N 29°59' W 093°12'0 0.2
2017-Sep-29 21:30N 29°59' W 093°12'2 3.3
2017-Sep-29 21:00N 29°58' W 093°11'0 0.0
2017-Sep-29 20:30N 29°58' W 093°11'0 0.0
2017-Sep-29 20:00N 29°58' W 093°11'0 0.0
2017-Sep-29 19:30N 29°58' W 093°11'0 0.0
2017-Sep-29 19:00N 29°58' W 093°11'0 0.0
2017-Sep-29 18:30N 29°58' W 093°11'0 0.0
2017-Sep-29 18:00N 29°58' W 093°11'1 1.7
2017-Sep-29 17:24N 29°57' W 093°10'2 5.0
2017-Sep-29 17:00N 29°56' W 093°08'3 5.6
2017-Sep-29 16:26N 29°56' W 093°05'38 4.3
2017-Sep-29 07:31N 29°51' W 092°21'0 3.8
2017-Sep-29 07:26N 29°51' W 092°21'2 4.5
2017-Sep-29 07:00N 29°50' W 092°19'2 3.8
2017-Sep-29 06:30N 29°49' W 092°17'2 4.6
2017-Sep-29 06:00N 29°48' W 092°15'1 2.4
2017-Sep-29 05:30N 29°48' W 092°13'2 4.1
2017-Sep-29 05:00N 29°47' W 092°11'2 4.5
2017-Sep-29 04:30N 29°47' W 092°09'3 5.2
2017-Sep-29 04:00N 29°48' W 092°06'2 4.8
2017-Sep-29 03:30N 29°49' W 092°03'3 5.0
2017-Sep-29 03:00N 29°50' W 092°01'57 4.4
2017-Sep-28 13:56N 29°34' W 090°57'2 5.3
2017-Sep-28 13:30N 29°33' W 090°54'3 5.5
2017-Sep-28 13:00N 29°32' W 090°52'3 5.7
2017-Sep-28 12:30N 29°32' W 090°48'3 5.2
2017-Sep-28 12:00N 29°33' W 090°45'2 3.4
2017-Sep-28 11:30N 29°34' W 090°44'2 3.3
2017-Sep-28 11:00N 29°35' W 090°43'2 3.5
2017-Sep-28 10:30N 29°37' W 090°42'2 4.1
2017-Sep-28 10:00N 29°36' W 090°40'1 2.5
2017-Sep-28 09:30N 29°35' W 090°39'1 2.2
2017-Sep-28 09:00N 29°35' W 090°38'2 4.4
2017-Sep-28 08:30N 29°35' W 090°35'2 4.1
2017-Sep-28 08:00N 29°34' W 090°33'  
Track history (hours):
 
Tides and Currents Weather Stations Pressure Air Temp Water Temp Dewpoint Dewpoint Depression Visibility Wind Speed Wind Dir Waves Ship Positions

Corky

Owner: Gulf South Marine Transportation, Inc., New Orleans, LA. More information available from US FCC via Universal Licensing System and Coast Guard Vessel Documentation Center.

Last reported at 2017-Oct-06 11:16 UTC. Time now 2017-Oct-18 23:54 UTC.
Position N 29°33' W 090°26'.
Warning: this ship's position is 12 days out of date.

Length 18 m; draft 3.3 m.

Type: Tow > 200 m length. MMSI: 367006780.

Date/timePositionNaut miles runAvg speedWind from/ knotsBaromVisibWave heightAir tempDewpointWater temp
2017-Oct-06 11:16N 29°33' W 090°26'1 3.7
2017-Oct-06 10:59N 29°33' W 090°27'1 2.6
2017-Oct-06 10:30N 29°33' W 090°28'2 3.6
2017-Oct-06 10:00N 29°34' W 090°31'2 3.8
2017-Oct-06 09:31N 29°34' W 090°33'2 3.6
2017-Oct-06 09:00N 29°34' W 090°35'2 3.3
2017-Oct-06 08:30N 29°35' W 090°36'2 3.4
2017-Oct-06 08:01N 29°35' W 090°38'2 3.4
2017-Oct-06 07:30N 29°36' W 090°40'2 3.7
2017-Oct-06 07:00N 29°37' W 090°42'1 3.0
2017-Oct-06 06:30N 29°35' W 090°43'2 3.2
2017-Oct-06 06:01N 29°34' W 090°43'2 3.4
2017-Oct-06 05:30N 29°33' W 090°45'2 3.3
2017-Oct-06 05:00N 29°32' W 090°47'2 4.0
2017-Oct-06 04:30N 29°32' W 090°49'62 3.4
2017-Oct-05 10:12N 29°53' W 091°56'0 0.6
2017-Oct-05 10:00N 29°53' W 091°56'0 0.1
2017-Oct-05 07:46N 29°53' W 091°56'0 0.1
2017-Oct-05 05:42N 29°53' W 091°56'0 0.0
2017-Oct-05 05:02N 29°53' W 091°56'0 0.1
2017-Oct-05 04:42N 29°53' W 091°56'0 0.9
2017-Oct-05 04:18N 29°53' W 091°56'4 2.7
2017-Oct-05 02:48N 29°50' W 091°60'2 5.8
2017-Oct-05 02:30N 29°49' W 092°02'3 5.7
2017-Oct-05 02:00N 29°48' W 092°05'3 5.8
2017-Oct-05 01:30N 29°47' W 092°08'2 4.4
2017-Oct-05 01:00N 29°47' W 092°10'0 0.6
2017-Oct-05 00:30N 29°47' W 092°11'0 0.0
2017-Oct-05 00:00N 29°47' W 092°11'0 0.6
2017-Oct-04 23:30N 29°47' W 092°10'0 0.5
2017-Oct-04 23:00N 29°47' W 092°10'0 0.2
2017-Oct-04 22:30N 29°47' W 092°11'1 1.5
2017-Oct-04 22:00N 29°47' W 092°11'1 1.9
2017-Oct-04 21:30N 29°47' W 092°12'1 2.0
2017-Oct-04 21:00N 29°48' W 092°14'44 3.6
2017-Oct-04 08:58N 29°56' W 093°03'2 4.9
2017-Oct-04 08:30N 29°56' W 093°06'3 5.1
2017-Oct-04 08:00N 29°56' W 093°09'2 4.7
2017-Oct-04 07:30N 29°58' W 093°11'2 4.6
2017-Oct-04 07:00N 29°59' W 093°13'2 4.6
2017-Oct-04 06:30N 30°01' W 093°14'2 3.9
2017-Oct-04 06:00N 30°02' W 093°16'2 4.7
2017-Oct-04 05:30N 30°05' W 093°17'1 2.4
2017-Oct-04 05:00N 30°05' W 093°18'1 1.7
2017-Oct-04 04:30N 30°06' W 093°18'0 0.0
2017-Oct-04 04:00N 30°06' W 093°18'1 1.5
2017-Oct-04 03:30N 30°06' W 093°19'3 5.1
2017-Oct-04 03:00N 30°04' W 093°21'2 4.8
2017-Oct-04 02:30N 30°04' W 093°24'3 5.1
2017-Oct-04 02:00N 30°04' W 093°27'82 3.5
2017-Oct-03 02:46N 29°31' W 094°53'2 5.8
2017-Oct-03 02:29N 29°32' W 094°54'2 4.5
2017-Oct-03 01:58N 29°34' W 094°55'3 6.0
2017-Oct-03 01:31N 29°36' W 094°57'3 6.4
2017-Oct-03 01:01N 29°39' W 094°58'3 6.4
2017-Oct-03 00:31N 29°42' W 095°01'3 5.7
2017-Oct-02 23:59N 29°44' W 095°03'3 1.8
2017-Oct-02 22:02N 29°46' W 095°06'1 0.0
2017-Oct-01 09:58N 29°46' W 095°05'1 2.7
2017-Oct-01 09:29N 29°45' W 095°04'3 5.6
2017-Oct-01 09:00N 29°44' W 095°01'3 5.2
2017-Oct-01 08:30N 29°42' W 094°60'3 6.1
2017-Oct-01 08:00N 29°39' W 094°58'3 6.1
2017-Oct-01 07:30N 29°36' W 094°57'3 5.9
2017-Oct-01 07:00N 29°34' W 094°55'91 3.1
2017-Sep-30 02:00N 30°04' W 093°16'0 0.0
2017-Sep-30 01:30N 30°04' W 093°16'0 0.0
2017-Sep-30 01:00N 30°04' W 093°16'0 0.0
2017-Sep-30 00:30N 30°04' W 093°16'1 1.6
2017-Sep-30 00:00N 30°03' W 093°16'2 4.0
2017-Sep-29 23:30N 30°02' W 093°15'3 5.2
2017-Sep-29 23:00N 29°60' W 093°13'1 1.3
2017-Sep-29 22:30N 29°59' W 093°12'0 0.0
2017-Sep-29 22:00N 29°59' W 093°12'0 0.2
2017-Sep-29 21:30N 29°59' W 093°12'2 3.3
2017-Sep-29 21:00N 29°58' W 093°11'0 0.0
2017-Sep-29 20:30N 29°58' W 093°11'0 0.0
2017-Sep-29 20:00N 29°58' W 093°11'0 0.0
2017-Sep-29 19:30N 29°58' W 093°11'0 0.0
2017-Sep-29 19:00N 29°58' W 093°11'0 0.0
2017-Sep-29 18:30N 29°58' W 093°11'0 0.0
2017-Sep-29 18:00N 29°58' W 093°11'1 1.7
2017-Sep-29 17:24N 29°57' W 093°10'2 5.0
2017-Sep-29 17:00N 29°56' W 093°08'3 5.6
2017-Sep-29 16:26N 29°56' W 093°05'38 4.3
2017-Sep-29 07:31N 29°51' W 092°21'0 3.8
2017-Sep-29 07:26N 29°51' W 092°21'2 4.5
2017-Sep-29 07:00N 29°50' W 092°19'2 3.8
2017-Sep-29 06:30N 29°49' W 092°17'2 4.6
2017-Sep-29 06:00N 29°48' W 092°15'1 2.4
2017-Sep-29 05:30N 29°48' W 092°13'2 4.1
2017-Sep-29 05:00N 29°47' W 092°11'2 4.5
2017-Sep-29 04:30N 29°47' W 092°09'3 5.2
2017-Sep-29 04:00N 29°48' W 092°06'2 4.8
2017-Sep-29 03:30N 29°49' W 092°03'3 5.0
2017-Sep-29 03:00N 29°50' W 092°01'57 4.4
2017-Sep-28 13:56N 29°34' W 090°57'2 5.3
2017-Sep-28 13:30N 29°33' W 090°54'3 5.5
2017-Sep-28 13:00N 29°32' W 090°52'3 5.7
2017-Sep-28 12:30N 29°32' W 090°48'3 5.2
2017-Sep-28 12:00N 29°33' W 090°45'2 3.4
2017-Sep-28 11:30N 29°34' W 090°44'2 3.3
2017-Sep-28 11:00N 29°35' W 090°43'2 3.5
2017-Sep-28 10:30N 29°37' W 090°42'2 4.1
2017-Sep-28 10:00N 29°36' W 090°40'1 2.5
2017-Sep-28 09:30N 29°35' W 090°39'1 2.2
2017-Sep-28 09:00N 29°35' W 090°38'2 4.4
2017-Sep-28 08:30N 29°35' W 090°35'2 4.1
2017-Sep-28 08:00N 29°34' W 090°33'  

Dump ship's entire track history